Bredene, Belgium
Current Conditions -  °F | °C
As of 6:20 AM on Saturday 25 Oct 2014 (Local Time) from EBOS Reporting Station
Haze Haze  
Wind Chill: 54°   Ceiling: Unl
Heat Index: 54°   Visibility: 3mi
Dew Point: 50°   Wind: 7mph
Humidity: 88%   Direction: 200°SSW
Pressure: 30"   Gusts: NA
Location:  51.23°N, 2.98°E
Report Text: EBOS 250420Z 20006KT 5000 BR FEW010 SCT040 12/10 Q1016 BECMG 3500 BR
Loading
Personal Weather Stations






























Interactive Weather Map
Tropical Storm Tracking
New forecast layout! Learn more

10-Day Weather Forecast

Advertisements
Track Severe Weather on mobile